Time;durP1;ratioP1;P1;durP2;ratioP2;P2;SDS_P1;SDS_P2;PMS_P1;PMS_P2;Temp;Humidity;BMP_temperature;BMP_pressure;BME280_temperature;BME280_humidity;BME280_pressure;Samples;Min_cycle;Max_cycle;Signal;HPM_P1;HPM_P2
2022/03/20 00:01:07;;;;;;;5.37;3.00;;;9.50;85.10;;;;;;5000682;28;20228;-34
2022/03/20 00:03:38;;;;;;;6.53;3.30;;;9.50;85.20;;;;;;5006456;28;20840;-35
2022/03/20 00:06:08;;;;;;;6.97;3.57;;;9.50;85.40;;;;;;5024169;28;20213;-33
2022/03/20 00:08:37;;;;;;;7.83;3.70;;;9.40;85.30;;;;;;4996100;28;20693;-35
2022/03/20 00:11:04;;;;;;;5.73;2.97;;;9.40;85.30;;;;;;4996997;28;20867;-34
2022/03/20 00:13:32;;;;;;;6.23;2.90;;;9.40;85.60;;;;;;4994432;28;20350;-33
2022/03/20 00:15:59;;;;;;;7.00;3.63;;;9.40;85.60;;;;;;4994943;28;20665;-34
2022/03/20 00:18:27;;;;;;;6.87;3.90;;;9.30;85.40;;;;;;4991270;28;20557;-34
2022/03/20 00:20:57;;;;;;;8.13;4.23;;;9.30;85.50;;;;;;5004985;28;20813;-34
2022/03/20 00:23:28;;;;;;;7.67;4.23;;;9.30;85.40;;;;;;5005608;28;20264;-33
2022/03/20 00:25:56;;;;;;;7.47;4.47;;;9.30;85.50;;;;;;4989397;28;20214;-35
2022/03/20 00:28:25;;;;;;;7.93;4.60;;;9.30;85.60;;;;;;4991795;28;20226;-33
2022/03/20 00:30:57;;;;;;;6.00;4.20;;;9.30;85.60;;;;;;4997852;28;20293;-33
2022/03/20 00:33:27;;;;;;;7.93;4.97;;;9.30;85.60;;;;;;4990766;28;20205;-34
2022/03/20 00:35:54;;;;;;;9.07;5.00;;;9.30;85.80;;;;;;4991937;28;20490;-35
2022/03/20 00:38:22;;;;;;;7.43;5.43;;;9.20;85.70;;;;;;5002394;28;20216;-33
2022/03/20 00:40:54;;;;;;;8.03;5.47;;;9.20;85.80;;;;;;5001806;28;20242;-35
2022/03/20 00:43:29;;;;;;;9.17;5.60;;;9.20;85.90;;;;;;4990542;28;20257;-33
2022/03/20 00:46:04;;;;;;;10.30;5.90;;;9.20;85.90;;;;;;5002749;28;20225;-34
2022/03/20 00:48:36;;;;;;;9.53;6.00;;;9.20;86.00;;;;;;4992516;28;20224;-34
2022/03/20 00:51:06;;;;;;;10.43;6.20;;;9.20;86.00;;;;;;4999886;28;20208;-35
2022/03/20 00:53:39;;;;;;;9.77;6.50;;;9.20;86.10;;;;;;5004014;28;20206;-34
2022/03/20 00:56:07;;;;;;;9.70;5.90;;;9.20;86.00;;;;;;5004592;28;20750;-35
2022/03/20 00:58:34;;;;;;;10.67;5.90;;;9.10;85.90;;;;;;4994305;28;20233;-34
2022/03/20 01:01:04;;;;;;;8.60;5.90;;;9.10;86.10;;;;;;5008170;28;20663;-35
2022/03/20 01:03:31;;;;;;;11.43;5.67;;;9.10;86.00;;;;;;5007786;28;20586;-34
2022/03/20 01:06:01;;;;;;;8.93;5.70;;;9.10;86.00;;;;;;5003030;28;20251;-33
2022/03/20 01:08:31;;;;;;;7.53;5.20;;;9.10;86.20;;;;;;4996455;28;20276;-34
2022/03/20 01:11:03;;;;;;;8.33;5.50;;;9.10;86.20;;;;;;4989463;28;20301;-34
2022/03/20 01:13:33;;;;;;;7.70;5.40;;;9.00;86.20;;;;;;5011661;28;20247;-35
2022/03/20 01:16:00;;;;;;;8.57;5.40;;;9.00;86.20;;;;;;4989311;28;20202;-34
2022/03/20 01:18:30;;;;;;;9.27;5.80;;;8.90;86.00;;;;;;5009586;28;20297;-37
2022/03/20 01:21:02;;;;;;;11.40;6.33;;;9.00;86.10;;;;;;4995511;28;20629;-33
2022/03/20 01:23:30;;;;;;;8.70;6.23;;;8.90;86.10;;;;;;4997053;28;20191;-33
2022/03/20 01:25:58;;;;;;;8.00;6.13;;;8.90;86.00;;;;;;4989850;28;20198;-32
2022/03/20 01:28:27;;;;;;;10.87;6.37;;;8.90;86.10;;;;;;4995621;28;20198;-34
2022/03/20 01:30:55;;;;;;;11.80;6.30;;;8.90;86.10;;;;;;4989295;28;20210;-34
2022/03/20 01:33:22;;;;;;;11.13;6.30;;;8.90;86.10;;;;;;4993643;28;20202;-32
2022/03/20 01:35:52;;;;;;;10.00;6.13;;;8.80;86.00;;;;;;4994408;28;20213;-32
2022/03/20 01:38:22;;;;;;;11.37;6.63;;;8.90;86.30;;;;;;4995729;28;20212;-34
2022/03/20 01:40:52;;;;;;;10.73;6.10;;;8.80;86.20;;;;;;4991524;28;20221;-32
2022/03/20 01:43:24;;;;;;;8.77;6.30;;;8.80;86.30;;;;;;4989013;28;20245;-33
2022/03/20 01:45:51;;;;;;;8.83;6.10;;;8.80;86.20;;;;;;4994690;28;20270;-32
2022/03/20 01:48:18;;;;;;;12.23;6.37;;;8.70;86.30;;;;;;4997654;28;20705;-32
2022/03/20 01:50:49;;;;;;;9.63;6.30;;;8.70;86.20;;;;;;4992055;28;20210;-32
2022/03/20 01:53:20;;;;;;;9.70;6.23;;;8.70;86.20;;;;;;4989581;28;20217;-32
2022/03/20 01:55:51;;;;;;;10.90;6.27;;;8.60;86.50;;;;;;5004539;28;20787;-32
2022/03/20 01:58:23;;;;;;;9.97;6.63;;;8.60;86.20;;;;;;4995353;28;20289;-33
2022/03/20 02:00:52;;;;;;;8.87;6.50;;;8.50;86.20;;;;;;4988299;28;20194;-33
2022/03/20 02:03:20;;;;;;;10.67;7.03;;;8.50;86.30;;;;;;4991966;28;20221;-33
2022/03/20 02:05:50;;;;;;;10.83;7.07;;;8.50;86.00;;;;;;5005289;28;20802;-33
2022/03/20 02:08:25;;;;;;;11.70;7.43;;;8.50;86.20;;;;;;4995941;28;20260;-33
2022/03/20 02:10:53;;;;;;;11.63;7.13;;;8.40;85.90;;;;;;4999294;28;20227;-33
2022/03/20 02:13:24;;;;;;;11.87;7.60;;;8.40;85.90;;;;;;5000769;28;20244;-33
2022/03/20 02:15:54;;;;;;;12.83;7.80;;;8.40;86.10;;;;;;5020112;28;20267;-33
2022/03/20 02:18:25;;;;;;;11.03;7.80;;;8.40;85.90;;;;;;4995363;28;20234;-32
2022/03/20 02:20:53;;;;;;;12.13;7.03;;;8.30;85.90;;;;;;4998515;28;20230;-34
2022/03/20 02:23:23;;;;;;;12.90;8.37;;;8.30;85.80;;;;;;5006054;28;20209;-33
2022/03/20 02:25:56;;;;;;;11.00;7.70;;;8.20;85.90;;;;;;4993998;28;20265;-33
2022/03/20 02:28:23;;;;;;;12.47;8.23;;;8.20;85.80;;;;;;5003995;28;20711;-33
2022/03/20 02:30:50;;;;;;;11.17;7.67;;;8.20;85.80;;;;;;5016817;28;21043;-33
2022/03/20 02:33:21;;;;;;;13.30;8.13;;;8.10;85.70;;;;;;4999736;28;20752;-33
2022/03/20 02:35:54;;;;;;;11.77;8.07;;;8.10;85.90;;;;;;4988397;28;20594;-32
2022/03/20 02:38:24;;;;;;;10.53;7.77;;;8.10;85.70;;;;;;5004538;28;20209;-34
2022/03/20 02:40:54;;;;;;;12.67;8.63;;;8.00;85.60;;;;;;4996738;28;20285;-33
2022/03/20 02:43:30;;;;;;;11.80;8.77;;;8.00;85.70;;;;;;4988031;28;20213;-33
2022/03/20 02:46:02;;;;;;;12.80;8.63;;;8.00;85.60;;;;;;4988066;28;20587;-33
2022/03/20 02:48:31;;;;;;;13.53;8.50;;;7.90;85.80;;;;;;4993617;28;20213;-34
2022/03/20 02:50:59;;;;;;;12.97;7.80;;;7.90;85.70;;;;;;4990812;28;20209;-33
2022/03/20 02:53:26;;;;;;;10.43;8.10;;;7.80;85.50;;;;;;4999110;28;20210;-34
2022/03/20 02:55:53;;;;;;;12.13;8.80;;;7.80;85.80;;;;;;5000867;28;20284;-32
2022/03/20 02:58:21;;;;;;;13.27;8.67;;;7.80;85.70;;;;;;4999296;28;20206;-32
2022/03/20 03:00:52;;;;;;;11.23;8.57;;;7.80;85.70;;;;;;4988968;28;20681;-33
2022/03/20 03:03:20;;;;;;;13.33;9.10;;;7.70;85.60;;;;;;4990836;28;20574;-33
2022/03/20 03:05:50;;;;;;;12.27;9.20;;;7.70;85.90;;;;;;4995971;28;20209;-31
2022/03/20 03:11:05;;;;;;;13.30;8.80;;;7.60;85.80;;;;;;4988777;28;20229;-32
2022/03/20 03:13:39;;;;;;;15.43;9.07;;;7.60;85.70;;;;;;4988898;28;20312;-31
2022/03/20 03:16:12;;;;;;;15.43;8.87;;;7.60;86.80;;;;;;5001103;28;20315;-33
2022/03/20 03:18:48;;;;;;;15.60;9.97;;;7.50;85.90;;;;;;5004400;28;20593;-32
2022/03/20 03:21:19;;;;;;;14.07;9.00;;;7.50;86.10;;;;;;4996758;28;20648;-33
2022/03/20 03:23:48;;;;;;;11.57;9.10;;;7.50;85.90;;;;;;5006791;28;20680;-33
2022/03/20 03:26:16;;;;;;;14.43;8.57;;;7.50;85.80;;;;;;5000129;28;20218;-33
2022/03/20 03:28:43;;;;;;;12.80;8.80;;;7.50;85.50;;;;;;4995932;28;20206;-33
2022/03/20 03:31:11;;;;;;;13.67;9.37;;;7.50;85.80;;;;;;5001582;28;20718;-33
2022/03/20 03:35:41;;;;;;;13.67;9.90;;;7.50;85.70;;;;;;4992928;28;20233;-33
2022/03/20 03:36:28;;;;;;;14.30;9.63;;;7.50;85.80;;;;;;4994111;28;20233;-33
2022/03/20 03:38:58;;;;;;;15.00;9.93;;;7.50;86.40;;;;;;4991755;28;20296;-33
2022/03/20 03:41:27;;;;;;;12.53;9.13;;;7.50;86.10;;;;;;5005522;28;20304;-32
2022/03/20 03:44:01;;;;;;;14.03;9.77;;;7.50;86.00;;;;;;5002733;28;20202;-33
2022/03/20 03:46:31;;;;;;;13.07;9.30;;;7.50;86.10;;;;;;4989195;28;20223;-33
2022/03/20 03:49:01;;;;;;;11.67;8.87;;;7.50;85.90;;;;;;4993638;28;20205;-33
2022/03/20 03:51:31;;;;;;;13.60;9.50;;;7.50;86.10;;;;;;4996419;28;20214;-33
2022/03/20 03:54:00;;;;;;;14.00;9.10;;;7.50;86.10;;;;;;4996011;28;20242;-34
2022/03/20 03:56:30;;;;;;;13.40;8.73;;;7.50;86.20;;;;;;4993330;28;20225;-33
2022/03/20 03:58:57;;;;;;;13.40;8.80;;;7.50;85.90;;;;;;5023832;28;20301;-33
2022/03/20 04:01:29;;;;;;;13.83;9.50;;;7.50;86.20;;;;;;4994414;28;20238;-33
2022/03/20 04:03:56;;;;;;;17.60;9.80;;;7.50;86.10;;;;;;4993447;28;20210;-32
2022/03/20 04:06:24;;;;;;;13.83;10.07;;;7.40;86.00;;;;;;4989608;28;20304;-34
2022/03/20 04:08:54;;;;;;;17.90;10.10;;;7.40;85.90;;;;;;4992741;28;20305;-34
2022/03/20 04:11:21;;;;;;;14.30;10.33;;;7.40;87.20;;;;;;4991462;28;20684;-33
2022/03/20 04:13:49;;;;;;;14.80;10.27;;;7.40;86.60;;;;;;4991365;28;20284;-33
2022/03/20 04:16:18;;;;;;;16.33;10.63;;;7.40;86.30;;;;;;4990839;28;20245;-33
2022/03/20 04:18:48;;;;;;;13.00;10.17;;;7.40;86.60;;;;;;4998685;28;20218;-33
2022/03/20 04:21:20;;;;;;;14.37;10.10;;;7.40;86.50;;;;;;4999664;28;20198;-32
2022/03/20 04:23:49;;;;;;;15.47;9.83;;;7.40;86.50;;;;;;4994512;28;20236;-33
2022/03/20 04:26:21;;;;;;;16.07;10.73;;;7.40;86.30;;;;;;4990813;28;20321;-33
2022/03/20 04:28:54;;;;;;;13.87;10.53;;;7.40;86.40;;;;;;5006037;28;20280;-33
2022/03/20 04:31:23;;;;;;;18.67;11.03;;;7.50;86.50;;;;;;4996178;28;20202;-33
2022/03/20 04:33:56;;;;;;;15.33;11.17;;;7.50;86.40;;;;;;4990701;28;20202;-33
2022/03/20 04:36:24;;;;;;;17.67;11.50;;;7.50;86.40;;;;;;4973559;28;20245;-32
2022/03/20 04:38:54;;;;;;;16.30;11.67;;;7.50;86.50;;;;;;4989113;28;20203;-33
2022/03/20 04:41:22;;;;;;;16.57;11.00;;;7.50;86.80;;;;;;5001310;28;20206;-32
2022/03/20 04:43:52;;;;;;;16.33;12.13;;;7.50;86.50;;;;;;5009201;28;20308;-32
2022/03/20 04:46:22;;;;;;;18.70;12.13;;;7.60;86.70;;;;;;4993989;28;20763;-32
2022/03/20 04:59:58;;;;;;;18.47;12.27;;;7.60;87.00;;;;;;5006480;28;20298;-33
2022/03/20 05:02:26;;;;;;;18.90;14.03;;;7.60;86.90;;;;;;5021533;28;20194;-32
2022/03/20 05:04:58;;;;;;;17.50;13.07;;;7.60;87.10;;;;;;4990570;28;20223;-32
2022/03/20 05:07:29;;;;;;;19.63;13.83;;;7.60;87.30;;;;;;4991971;28;20204;-32
2022/03/20 05:15:36;;;;;;;17.03;12.67;;;7.60;87.10;;;;;;4990513;28;20229;-33
2022/03/20 05:18:11;;;;;;;21.90;14.30;;;7.60;86.90;;;;;;4990567;28;20496;-32
2022/03/20 05:20:39;;;;;;;21.80;13.63;;;7.60;87.90;;;;;;5008421;28;20301;-32
2022/03/20 05:23:06;;;;;;;19.87;13.20;;;7.60;87.00;;;;;;4998779;28;20202;-33
2022/03/20 05:25:36;;;;;;;18.33;13.70;;;7.60;87.00;;;;;;5004525;28;20233;-32
2022/03/20 05:28:06;;;;;;;19.90;14.10;;;7.60;87.00;;;;;;5007909;28;20793;-33
2022/03/20 05:30:34;;;;;;;18.77;13.37;;;7.60;87.10;;;;;;5016982;28;20760;-32
2022/03/20 05:33:07;;;;;;;19.30;14.77;;;7.60;87.00;;;;;;4988909;28;20582;-33
2022/03/20 05:35:34;;;;;;;20.03;14.57;;;7.60;86.90;;;;;;5004296;28;20679;-34
2022/03/20 05:38:01;;;;;;;22.60;14.80;;;7.60;86.80;;;;;;5002730;28;20204;-32
2022/03/20 05:40:33;;;;;;;21.63;14.80;;;7.60;86.90;;;;;;5001027;28;20197;-31
2022/03/20 05:43:03;;;;;;;18.80;14.57;;;7.60;86.80;;;;;;4988397;28;20224;-31
2022/03/20 05:45:34;;;;;;;22.60;15.23;;;7.60;87.00;;;;;;4994439;28;20632;-32
2022/03/20 05:48:04;;;;;;;20.67;14.83;;;7.60;87.00;;;;;;5007017;28;20296;-32
2022/03/20 05:50:31;;;;;;;22.67;15.53;;;7.60;86.90;;;;;;5007439;28;20573;-32
2022/03/20 05:53:03;;;;;;;20.87;14.10;;;7.60;86.90;;;;;;4993264;28;20213;-32
2022/03/20 05:58:19;;;;;;;20.60;15.17;;;7.60;87.00;;;;;;5005852;28;20212;-33
2022/03/20 06:00:46;;;;;;;22.97;16.17;;;7.60;87.00;;;;;;5002978;28;20201;-32
2022/03/20 06:03:17;;;;;;;21.00;14.93;;;7.60;87.10;;;;;;4997873;28;20213;-32
2022/03/20 06:05:47;;;;;;;20.30;16.43;;;7.60;86.90;;;;;;4993300;28;20590;-33
2022/03/20 06:08:14;;;;;;;22.57;15.30;;;7.60;87.10;;;;;;5002344;28;20225;-32
2022/03/20 06:10:44;;;;;;;21.87;15.67;;;7.60;87.00;;;;;;4999927;28;20224;-32
2022/03/20 06:13:13;;;;;;;21.10;15.90;;;7.60;87.10;;;;;;5000051;28;20206;-33
2022/03/20 06:15:47;;;;;;;22.30;16.13;;;7.60;86.90;;;;;;4999005;28;20260;-32
2022/03/20 06:18:14;;;;;;;21.17;15.87;;;7.60;87.00;;;;;;4998079;28;20201;-33
2022/03/20 06:20:45;;;;;;;21.57;15.93;;;7.60;87.10;;;;;;5005003;28;20653;-34
2022/03/20 06:23:15;;;;;;;24.90;15.70;;;7.60;87.00;;;;;;4998371;28;20197;-33
2022/03/20 06:25:51;;;;;;;23.07;16.40;;;7.60;87.20;;;;;;5000416;28;20197;-34
2022/03/20 06:28:22;;;;;;;25.47;17.50;;;7.60;87.60;;;;;;4989143;28;20615;-33
2022/03/20 06:30:50;;;;;;;25.90;17.07;;;7.50;87.40;;;;;;4989754;28;20498;-33
2022/03/20 06:33:17;;;;;;;23.87;16.43;;;7.50;87.50;;;;;;4994124;28;20205;-32
2022/03/20 06:35:44;;;;;;;25.17;18.53;;;7.50;87.80;;;;;;5000256;28;20210;-33
2022/03/20 06:38:14;;;;;;;23.97;17.13;;;7.50;88.00;;;;;;4995423;28;20692;-33
2022/03/20 06:40:44;;;;;;;21.97;17.00;;;7.50;87.70;;;;;;5001066;28;20296;-33
2022/03/20 06:43:14;;;;;;;24.87;17.30;;;7.60;88.00;;;;;;4991179;28;20206;-33
2022/03/20 06:45:43;;;;;;;26.53;17.70;;;7.60;88.00;;;;;;4994016;28;20206;-34
2022/03/20 06:48:13;;;;;;;25.43;17.57;;;7.60;88.50;;;;;;4994695;28;20216;-33
2022/03/20 06:50:43;;;;;;;24.20;18.00;;;7.60;88.50;;;;;;4996866;28;20249;-32
2022/03/20 06:53:11;;;;;;;25.27;17.97;;;7.60;88.50;;;;;;4994794;28;20741;-34
2022/03/20 06:55:41;;;;;;;24.07;17.87;;;7.50;88.80;;;;;;4992992;28;20233;-33
2022/03/20 06:58:11;;;;;;;23.97;18.73;;;7.60;89.00;;;;;;4993049;28;20202;-33
2022/03/20 07:00:38;;;;;;;24.20;18.23;;;7.50;89.20;;;;;;4994190;28;20296;-33
2022/03/20 07:03:09;;;;;;;25.37;18.83;;;7.50;89.10;;;;;;4999807;28;20198;-33
2022/03/20 07:05:39;;;;;;;28.27;18.30;;;7.40;89.30;;;;;;5001439;28;20762;-33
2022/03/20 07:08:07;;;;;;;25.00;18.03;;;7.40;89.80;;;;;;5000296;28;20624;-34
2022/03/20 07:10:34;;;;;;;24.97;18.23;;;7.30;90.00;;;;;;4997110;28;20214;-33
2022/03/20 07:15:52;;;;;;;25.37;18.97;;;7.30;90.00;;;;;;4992795;28;20221;-32
2022/03/20 07:18:20;;;;;;;25.37;18.73;;;7.20;90.20;;;;;;4990645;28;20605;-34
2022/03/20 07:20:50;;;;;;;26.13;19.73;;;7.10;90.30;;;;;;4991717;28;20199;-33
2022/03/20 07:23:18;;;;;;;28.23;19.30;;;7.10;90.50;;;;;;4992866;28;20770;-33
2022/03/20 07:31:17;;;;;;;29.00;20.00;;;6.90;90.80;;;;;;5003667;28;20217;-33
2022/03/20 07:33:48;;;;;;;25.47;20.77;;;6.90;90.30;;;;;;4993968;28;20206;-33
2022/03/20 07:36:19;;;;;;;27.23;20.20;;;6.80;90.30;;;;;;4997228;28;20658;-33
2022/03/20 07:38:46;;;;;;;28.63;20.60;;;6.80;90.30;;;;;;4999420;28;20823;-33
2022/03/20 07:41:18;;;;;;;26.63;20.27;;;6.80;90.40;;;;;;5001633;28;20279;-33
2022/03/20 07:43:47;;;;;;;27.37;19.97;;;6.70;90.70;;;;;;4996441;28;20198;-33
2022/03/20 07:46:14;;;;;;;29.47;21.03;;;6.70;90.40;;;;;;5003465;28;20210;-33
2022/03/20 07:48:41;;;;;;;28.97;21.27;;;6.70;90.80;;;;;;5003611;28;20308;-32
2022/03/20 07:51:16;;;;;;;28.03;20.23;;;6.70;90.70;;;;;;4997199;28;20758;-33
2022/03/20 07:53:45;;;;;;;29.87;20.27;;;6.70;90.60;;;;;;4996181;28;20328;-32
2022/03/20 07:56:12;;;;;;;28.00;20.27;;;6.70;90.60;;;;;;4997244;28;20234;-33
2022/03/20 07:58:44;;;;;;;28.67;19.93;;;6.70;90.60;;;;;;5001068;28;20218;-33
2022/03/20 08:01:14;;;;;;;29.00;20.57;;;6.70;90.60;;;;;;5005210;28;20205;-33
2022/03/20 08:03:44;;;;;;;27.17;20.10;;;6.70;90.90;;;;;;4988602;28;20296;-33
2022/03/20 08:06:15;;;;;;;31.93;21.90;;;6.70;90.70;;;;;;4990725;28;20730;-32
2022/03/20 08:08:43;;;;;;;29.03;21.60;;;6.80;91.00;;;;;;4991284;28;20230;-33
2022/03/20 08:11:10;;;;;;;30.90;20.83;;;6.80;91.00;;;;;;4990524;28;20254;-33
2022/03/20 08:13:40;;;;;;;29.10;20.77;;;6.80;90.90;;;;;;5001560;28;20273;-33
2022/03/20 08:16:09;;;;;;;29.33;20.83;;;6.90;91.00;;;;;;4995839;28;20222;-32
2022/03/20 08:18:37;;;;;;;29.50;21.63;;;6.90;91.00;;;;;;4995757;28;20289;-33
2022/03/20 08:21:05;;;;;;;29.17;20.50;;;7.00;91.30;;;;;;4997284;28;20234;-32
2022/03/20 08:23:32;;;;;;;31.00;22.20;;;7.10;91.20;;;;;;4989805;28;20206;-33
2022/03/20 08:26:00;;;;;;;29.87;21.00;;;7.10;91.40;;;;;;4990943;28;20504;-32
2022/03/20 08:28:27;;;;;;;29.23;21.33;;;7.10;91.20;;;;;;4994097;28;20202;-33
2022/03/20 08:30:54;;;;;;;31.60;21.23;;;7.10;91.20;;;;;;5004068;28;20578;-33
2022/03/20 08:33:24;;;;;;;29.50;22.43;;;7.10;91.20;;;;;;4998905;28;20265;-33
2022/03/20 08:35:55;;;;;;;28.50;20.10;;;7.20;91.80;;;;;;4992571;28;20228;-32
2022/03/20 08:38:24;;;;;;;30.40;22.30;;;7.20;91.30;;;;;;5001542;28;20213;-33
2022/03/20 08:40:55;;;;;;;30.53;22.00;;;7.20;91.40;;;;;;4996029;28;20202;-33
2022/03/20 08:43:27;;;;;;;30.57;22.27;;;7.20;91.40;;;;;;4997767;28;20205;-33
2022/03/20 08:45:59;;;;;;;26.67;20.97;;;7.30;91.50;;;;;;5007013;28;20205;-34
2022/03/20 08:48:29;;;;;;;29.60;22.00;;;7.30;91.50;;;;;;4990743;28;20575;-33
2022/03/20 08:50:58;;;;;;;28.73;20.53;;;7.40;91.70;;;;;;5001105;28;20205;-32
2022/03/20 08:53:27;;;;;;;31.33;21.23;;;7.40;91.80;;;;;;5002808;28;20233;-33
2022/03/20 08:55:56;;;;;;;26.30;21.03;;;7.40;91.70;;;;;;4989375;28;20740;-32
2022/03/20 08:58:28;;;;;;;28.27;21.30;;;7.50;91.70;;;;;;5013220;28;20621;-33
2022/03/20 09:00:58;;;;;;;32.37;22.83;;;7.60;92.00;;;;;;4991977;28;20233;-33
2022/03/20 09:03:25;;;;;;;33.33;22.27;;;7.60;91.90;;;;;;5002350;28;20252;-33
2022/03/20 09:05:52;;;;;;;30.30;22.40;;;7.70;91.90;;;;;;4993419;28;20312;-33
2022/03/20 09:08:20;;;;;;;29.23;21.73;;;7.70;92.00;;;;;;4993556;28;20217;-33
2022/03/20 09:10:51;;;;;;;30.47;21.27;;;7.70;91.90;;;;;;4993587;28;20205;-33
2022/03/20 09:13:18;;;;;;;28.80;21.90;;;7.80;91.90;;;;;;5009093;28;20711;-33
2022/03/20 09:18:59;;;;;;;28.77;22.40;;;7.80;91.90;;;;;;4994714;28;20218;-33
2022/03/20 09:21:21;;;;;;;28.13;21.17;;;7.80;91.90;;;;;;4989276;28;20202;-33
2022/03/20 09:23:51;;;;;;;28.87;22.83;;;7.90;91.90;;;;;;5001011;28;20317;-34
2022/03/20 09:26:18;;;;;;;29.37;21.93;;;7.90;92.10;;;;;;4998353;28;20213;-31
2022/03/20 09:28:50;;;;;;;28.83;21.47;;;7.90;92.00;;;;;;4989204;28;20281;-32
2022/03/20 09:31:24;;;;;;;29.13;21.93;;;8.00;92.20;;;;;;4991512;28;20775;-32
2022/03/20 09:33:54;;;;;;;30.10;22.00;;;8.00;92.50;;;;;;5009112;28;20209;-32
2022/03/20 09:36:24;;;;;;;30.60;21.47;;;8.10;92.10;;;;;;5002716;28;20257;-32
2022/03/20 09:38:53;;;;;;;28.90;21.40;;;8.10;92.10;;;;;;5020105;28;20244;-31
2022/03/20 09:41:27;;;;;;;28.53;22.13;;;8.20;92.20;;;;;;4993647;28;20302;-32
2022/03/20 09:43:54;;;;;;;32.37;21.63;;;8.20;92.10;;;;;;4988788;28;20297;-31
2022/03/20 09:46:23;;;;;;;30.63;22.23;;;8.30;92.30;;;;;;4990123;28;20217;-31
2022/03/20 09:48:56;;;;;;;28.07;21.70;;;8.30;92.30;;;;;;4999910;28;20304;-31
2022/03/20 09:51:24;;;;;;;29.10;21.10;;;8.30;92.20;;;;;;5002506;28;20700;-31
2022/03/20 09:53:51;;;;;;;27.77;21.33;;;8.40;92.20;;;;;;4998018;28;20237;-31
2022/03/20 09:56:20;;;;;;;29.03;20.50;;;8.40;92.30;;;;;;4992485;28;20236;-32
2022/03/20 09:58:50;;;;;;;28.80;21.03;;;8.40;92.10;;;;;;5001584;28;20212;-32
2022/03/20 10:01:20;;;;;;;26.43;19.93;;;8.40;92.10;;;;;;5003997;28;20202;-32
2022/03/20 10:03:47;;;;;;;27.20;19.77;;;8.40;92.00;;;;;;4989937;28;20198;-32
2022/03/20 10:06:17;;;;;;;27.53;20.43;;;8.40;92.00;;;;;;4993849;28;20484;-32
2022/03/20 10:08:58;;;;;;;28.73;20.77;;;8.50;92.00;;;;;;5002334;28;20218;-33
2022/03/20 10:11:26;;;;;;;27.23;20.87;;;8.50;92.10;;;;;;5000316;28;20575;-32
2022/03/20 10:14:22;;;;;;;31.23;20.80;;;8.50;92.10;;;;;;4994114;28;20228;-32
2022/03/20 10:17:09;;;;;;;27.33;20.00;;;8.60;92.30;;;;;;4988470;28;20279;-33
2022/03/20 10:19:36;;;;;;;28.27;20.53;;;8.70;92.30;;;;;;4991618;28;20645;-31
2022/03/20 10:22:10;;;;;;;28.60;20.80;;;8.70;92.30;;;;;;4999498;28;20204;-32
2022/03/20 10:24:49;;;;;;;27.23;20.63;;;8.80;92.40;;;;;;5001695;28;20249;-32
2022/03/20 10:27:17;;;;;;;24.73;19.53;;;8.80;92.30;;;;;;4990192;28;20210;-32
2022/03/20 10:29:55;;;;;;;25.43;19.67;;;8.90;92.30;;;;;;5000421;28;20318;-33
2022/03/20 10:32:25;;;;;;;27.87;20.07;;;8.90;92.40;;;;;;4992278;28;20226;-32
2022/03/20 10:34:52;;;;;;;27.60;19.20;;;8.90;92.20;;;;;;4990016;28;20207;-32
2022/03/20 10:37:43;;;;;;;24.23;19.40;;;9.00;92.30;;;;;;5003208;28;20229;-31
2022/03/20 10:40:12;;;;;;;27.53;20.20;;;9.00;92.30;;;;;;4998390;28;20205;-32
2022/03/20 10:42:43;;;;;;;26.70;20.17;;;9.00;92.20;;;;;;4993598;28;20226;-32
2022/03/20 10:45:13;;;;;;;24.37;18.47;;;9.10;92.20;;;;;;4995751;28;20261;-32
2022/03/20 10:47:41;;;;;;;24.73;19.50;;;9.10;92.20;;;;;;5007293;28;20198;-32
2022/03/20 10:50:10;;;;;;;24.80;19.73;;;9.20;92.20;;;;;;4998617;28;21990;-32
2022/03/20 10:52:42;;;;;;;24.40;19.47;;;9.20;92.20;;;;;;4995765;28;20218;-31
2022/03/20 10:55:15;;;;;;;26.53;19.77;;;9.30;92.70;;;;;;4994871;28;20801;-32
2022/03/20 10:57:45;;;;;;;26.07;20.03;;;9.40;92.40;;;;;;4996893;28;20229;-31
2022/03/20 11:00:17;;;;;;;26.60;19.43;;;9.40;92.40;;;;;;5007272;28;20330;-32
2022/03/20 11:02:45;;;;;;;26.60;19.43;;;9.50;92.50;;;;;;5005254;28;20413;-31
2022/03/20 11:05:15;;;;;;;25.00;18.00;;;9.50;92.50;;;;;;4988190;28;20206;-33
2022/03/20 11:07:43;;;;;;;26.90;19.93;;;9.50;92.40;;;;;;4992288;28;20304;-31
2022/03/20 11:10:11;;;;;;;26.10;19.63;;;9.60;92.40;;;;;;4987682;28;20638;-32
2022/03/20 11:12:46;;;;;;;27.20;19.70;;;9.70;92.50;;;;;;4994057;28;20589;-32
2022/03/20 11:15:16;;;;;;;23.57;18.67;;;9.70;92.60;;;;;;4997292;28;20293;-32
2022/03/20 11:17:45;;;;;;;23.93;19.10;;;9.80;92.60;;;;;;4999128;28;20313;-32
2022/03/20 11:20:17;;;;;;;27.10;20.23;;;9.80;92.60;;;;;;4988124;28;20221;-31
2022/03/20 11:22:59;;;;;;;23.33;19.53;;;9.80;92.60;;;;;;5008328;28;20217;-32
2022/03/20 11:25:30;;;;;;;25.00;19.67;;;9.90;92.70;;;;;;5006714;28;20784;-32
2022/03/20 11:28:03;;;;;;;24.33;19.47;;;9.90;92.70;;;;;;4990410;28;20769;-31
2022/03/20 11:30:36;;;;;;;26.33;19.87;;;10.00;92.20;;;;;;4986368;28;20202;-32
2022/03/20 11:33:09;;;;;;;23.43;20.30;;;10.00;92.20;;;;;;4987401;28;20202;-33
2022/03/20 11:35:41;;;;;;;25.90;20.23;;;10.00;92.10;;;;;;4992264;28;20224;-33
2022/03/20 11:38:24;;;;;;;25.80;19.53;;;10.10;92.20;;;;;;5007194;28;20226;-33
2022/03/20 11:41:31;;;;;;;26.07;20.00;;;10.10;92.30;;;;;;5005145;28;20205;-32
2022/03/20 11:44:25;;;;;;;22.73;18.23;;;10.20;92.40;;;;;;4971125;28;20270;-33
2022/03/20 11:47:29;;;;;;;23.97;18.80;;;10.30;92.40;;;;;;5006436;28;20217;-33
2022/03/20 11:50:14;;;;;;;27.87;20.70;;;10.40;92.50;;;;;;4975732;28;20224;-33
2022/03/20 11:52:58;;;;;;;27.93;20.43;;;10.40;92.40;;;;;;4999384;28;20720;-33
2022/03/20 11:55:34;;;;;;;24.83;19.80;;;10.50;92.50;;;;;;4990709;28;20264;-32
2022/03/20 11:58:24;;;;;;;28.03;19.93;;;10.50;92.50;;;;;;5007002;28;20252;-33
2022/03/20 12:01:03;;;;;;;27.10;20.10;;;10.60;92.60;;;;;;5009257;28;20335;-33
2022/03/20 12:03:52;;;;;;;24.93;20.17;;;10.60;92.60;;;;;;5009791;28;20213;-33
2022/03/20 12:06:31;;;;;;;24.23;19.60;;;10.70;92.70;;;;;;5006900;28;20280;-33
2022/03/20 12:09:09;;;;;;;28.00;22.10;;;10.70;92.70;;;;;;4991215;28;20194;-34
2022/03/20 12:11:40;;;;;;;26.87;20.27;;;10.80;92.70;;;;;;4990349;28;20214;-33
2022/03/20 12:14:46;;;;;;;24.93;19.87;;;10.80;92.80;;;;;;4999577;28;20213;-33
2022/03/20 12:17:13;;;;;;;25.97;21.03;;;10.90;92.90;;;;;;4970232;28;20660;-33
2022/03/20 12:19:49;;;;;;;24.97;19.60;;;10.90;92.90;;;;;;4990910;28;20205;-33
2022/03/20 12:22:21;;;;;;;27.13;20.33;;;11.00;93.00;;;;;;4990490;28;20202;-33
2022/03/20 12:25:03;;;;;;;25.13;20.40;;;11.10;93.00;;;;;;4990111;28;20487;-33
2022/03/20 12:27:30;;;;;;;26.27;20.80;;;11.10;93.30;;;;;;4989172;28;20238;-34
2022/03/20 12:30:15;;;;;;;26.60;21.53;;;11.20;93.00;;;;;;4999029;28;20267;-33
2022/03/20 12:32:55;;;;;;;24.63;19.83;;;11.20;93.10;;;;;;5007830;28;20201;-31
2022/03/20 12:35:27;;;;;;;25.23;20.67;;;11.30;93.10;;;;;;5010149;28;20225;-31
2022/03/20 12:38:00;;;;;;;23.93;20.50;;;11.40;93.20;;;;;;5009970;28;20716;-31
2022/03/20 12:40:36;;;;;;;25.87;21.30;;;11.40;93.30;;;;;;5003049;28;20197;-32
2022/03/20 12:43:20;;;;;;;26.20;21.13;;;11.50;93.30;;;;;;4988937;28;20206;-31
2022/03/20 12:45:51;;;;;;;27.30;21.40;;;11.60;93.30;;;;;;4995853;28;20224;-32
2022/03/20 12:48:21;;;;;;;25.00;21.00;;;11.60;93.30;;;;;;5000541;28;20716;-32
2022/03/20 12:50:55;;;;;;;27.07;21.27;;;11.60;93.40;;;;;;4998114;28;20295;-34
2022/03/20 12:53:35;;;;;;;25.00;20.70;;;11.70;93.40;;;;;;5003899;28;20308;-33
2022/03/20 12:56:08;;;;;;;24.03;20.03;;;11.80;93.50;;;;;;4996185;28;20220;-33
2022/03/20 12:58:38;;;;;;;26.63;20.83;;;11.80;93.50;;;;;;4996856;28;20284;-33
2022/03/20 13:01:12;;;;;;;26.13;20.23;;;11.80;93.40;;;;;;4999587;28;20234;-31
2022/03/20 13:03:45;;;;;;;28.60;22.57;;;11.90;93.40;;;;;;5006255;28;20218;-32
2022/03/20 13:06:15;;;;;;;27.40;22.13;;;11.90;93.50;;;;;;4996303;28;20202;-32
2022/03/20 13:08:46;;;;;;;24.53;20.17;;;11.90;93.40;;;;;;4990304;28;20787;-32
2022/03/20 13:14:12;;;;;;;25.80;20.50;;;11.90;93.20;;;;;;5001244;28;20210;-32
2022/03/20 13:17:02;;;;;;;25.83;20.37;;;12.00;93.20;;;;;;5007000;28;20286;-33
2022/03/20 13:19:37;;;;;;;27.27;21.80;;;12.00;93.10;;;;;;5000071;28;20259;-33
2022/03/20 13:22:09;;;;;;;26.87;21.20;;;12.00;93.10;;;;;;5006956;28;20300;-34
2022/03/20 13:24:41;;;;;;;24.85;21.20;;;12.00;93.20;;;;;;5006740;28;20228;-33
2022/03/20 13:27:13;;;;;;;27.47;22.57;;;12.00;93.20;;;;;;4990812;28;20202;-33
2022/03/20 13:29:54;;;;;;;27.40;20.83;;;12.00;93.20;;;;;;4976002;28;20633;-33
2022/03/20 13:32:26;;;;;;;26.43;20.90;;;12.00;93.20;;;;;;5004770;28;20214;-33
2022/03/20 13:34:54;;;;;;;26.50;20.93;;;12.10;93.40;;;;;;4989965;28;20813;-34
2022/03/20 13:37:24;;;;;;;29.27;22.17;;;12.10;93.40;;;;;;4990649;28;20237;-34